Time;durP1;ratioP1;P1;durP2;ratioP2;P2;SDS_P1;SDS_P2;PMS_P1;PMS_P2;Temp;Humidity;BMP_temperature;BMP_pressure;BME280_temperature;BME280_humidity;BME280_pressure;Samples;Min_cycle;Max_cycle;Signal;HPM_P1;HPM_P2
2024/03/11 00:00:07;;;;;;;;;27.25;20.25;;;;;-143.90;100.00;74798.03;4931397;28;102514;-74
2024/03/11 00:02:35;;;;;;;;;22.50;20.00;;;;;-143.90;100.00;74791.84;4931437;28;101995;-74
2024/03/11 00:05:02;;;;;;;;;23.50;21.75;;;;;-143.90;100.00;74795.97;4939614;28;105180;-74
2024/03/11 00:07:33;;;;;;;;;24.75;21.00;;;;;-143.90;100.00;74804.25;4931495;28;102397;-74
2024/03/11 00:10:00;;;;;;;;;25.00;20.00;;;;;-143.90;100.00;74812.50;4932724;28;102817;-74
2024/03/11 00:12:29;;;;;;;;;23.00;19.75;;;;;-143.90;100.00;74812.50;4927262;28;102359;-73
2024/03/11 00:14:57;;;;;;;;;22.00;16.75;;;;;-143.90;100.00;74814.56;4921808;28;108488;-73
2024/03/11 00:17:24;;;;;;;;;23.50;18.75;;;;;-143.90;100.00;74808.38;4917675;28;102439;-75
2024/03/11 00:19:50;;;;;;;;;23.75;20.75;;;;;-143.90;100.00;74806.31;4919270;28;102406;-74
2024/03/11 00:22:17;;;;;;;;;30.25;22.75;;;;;-143.90;100.00;74802.16;4921785;28;102869;-73
2024/03/11 00:24:43;;;;;;;;;20.50;16.00;;;;;-143.90;100.00;74804.25;4918827;28;103848;-73
2024/03/11 00:27:10;;;;;;;;;20.00;18.00;;;;;-143.90;100.00;74800.09;4908199;28;102614;-74
2024/03/11 00:29:37;;;;;;;;;19.25;17.75;;;;;-143.90;100.00;74806.31;4908184;28;102446;-74
2024/03/11 00:32:07;;;;;;;;;20.00;18.00;;;;;-143.90;100.00;74808.38;4925097;28;102777;-73
2024/03/11 00:34:35;;;;;;;;;19.75;18.25;;;;;-143.90;100.00;74800.09;4917935;28;103838;-73
2024/03/11 00:37:02;;;;;;;;;20.75;19.00;;;;;-143.90;100.00;74806.31;4921495;28;101953;-72
2024/03/11 00:39:29;;;;;;;;;19.25;14.00;;;;;-143.90;100.00;74795.97;4917429;28;103615;-74
2024/03/11 00:41:56;;;;;;;;;21.75;18.25;;;;;-143.90;100.00;74812.50;4930119;28;102324;-72
2024/03/11 00:44:22;;;;;;;;;20.25;16.00;;;;;-143.90;100.00;74800.09;4925927;28;104183;-76
2024/03/11 00:46:49;;;;;;;;;16.00;14.00;;;;;-143.90;100.00;74798.03;4927345;28;102503;-74
2024/03/11 00:49:17;;;;;;;;;10.00;8.25;;;;;-143.90;100.00;74795.97;4922611;28;102244;-75
2024/03/11 00:51:44;;;;;;;;;23.00;18.50;;;;;-143.90;100.00;74802.16;4909996;28;104733;-74
2024/03/11 00:54:11;;;;;;;;;22.50;15.25;;;;;-143.90;100.00;74795.97;4905271;28;104085;-74
2024/03/11 00:56:39;;;;;;;;;18.25;15.75;;;;;-143.90;100.00;74787.69;4920194;28;104833;-75
2024/03/11 00:59:06;;;;;;;;;20.25;16.00;;;;;-143.90;100.00;74789.78;4922844;28;102589;-74
2024/03/11 01:01:33;;;;;;;;;17.75;17.00;;;;;-143.90;100.00;74781.50;4899938;28;102051;-73
2024/03/11 01:04:00;;;;;;;;;19.00;15.75;;;;;-143.90;100.00;74781.50;4922907;28;103938;-75
2024/03/11 01:06:27;;;;;;;;;20.00;16.50;;;;;-143.90;100.00;74779.44;4921039;28;103009;-73
2024/03/11 01:08:57;;;;;;;;;19.75;17.00;;;;;-143.90;100.00;74775.31;4916694;28;102541;-74
2024/03/11 01:11:24;;;;;;;;;16.50;15.00;;;;;-143.90;100.00;74775.31;4917674;28;108434;-73
2024/03/11 01:13:51;;;;;;;;;14.00;13.00;;;;;-143.90;100.00;74769.09;4934860;28;104009;-74
2024/03/11 01:16:18;;;;;;;;;16.50;15.50;;;;;-143.90;100.00;74764.97;4941222;28;102612;-73
2024/03/11 01:18:45;;;;;;;;;17.00;17.00;;;;;-143.90;100.00;74777.38;4933878;28;102613;-73
2024/03/11 01:21:16;;;;;;;;;18.00;15.00;;;;;-143.90;100.00;74767.03;4939870;28;102427;-74
2024/03/11 01:23:45;;;;;;;;;11.00;11.00;;;;;-143.90;100.00;74758.75;4928171;28;109450;-74
2024/03/11 01:26:11;;;;;;;;;17.75;15.00;;;;;-143.90;100.00;74767.03;4937294;28;102434;-73
2024/03/11 01:28:39;;;;;;;;;14.75;13.25;;;;;-143.90;100.00;74756.69;4936742;28;102043;-74
2024/03/11 01:31:06;;;;;;;;;13.00;12.75;;;;;-143.90;100.00;74756.69;4940315;28;103126;-74
2024/03/11 01:33:33;;;;;;;;;18.50;13.00;;;;;-143.90;100.00;74750.50;4928428;28;104103;-75
2024/03/11 01:36:01;;;;;;;;;18.00;15.50;;;;;-143.90;100.00;74756.69;4928549;28;102331;-74
2024/03/11 01:38:28;;;;;;;;;18.00;17.50;;;;;-143.90;100.00;74754.63;4929003;28;102405;-74
2024/03/11 01:40:55;;;;;;;;;13.75;9.25;;;;;-143.90;100.00;74760.81;4941432;28;102993;-73
2024/03/11 01:43:22;;;;;;;;;21.00;17.50;;;;;-143.90;100.00;74754.63;4933118;28;104170;-74
2024/03/11 01:45:49;;;;;;;;;16.25;15.00;;;;;-143.90;100.00;74758.75;4932801;28;103254;-74
2024/03/11 01:48:16;;;;;;;;;15.75;15.50;;;;;-143.90;100.00;74762.91;4940066;28;102276;-73
2024/03/11 01:50:43;;;;;;;;;16.50;14.00;;;;;-143.90;100.00;74758.75;4938351;28;102005;-73
2024/03/11 01:53:10;;;;;;;;;20.00;15.75;;;;;-143.90;100.00;74752.56;4934110;28;108814;-72
2024/03/11 01:55:37;;;;;;;;;13.00;12.00;;;;;-143.90;100.00;74748.44;4927066;28;102283;-73
2024/03/11 01:58:09;;;;;;;;;16.75;15.00;;;;;-143.90;100.00;74750.50;4928060;28;102135;-73
2024/03/11 02:00:37;;;;;;;;;13.75;11.00;;;;;-143.90;100.00;74750.50;4934737;28;102019;-73
2024/03/11 02:03:06;;;;;;;;;20.75;16.75;;;;;-143.90;100.00;74748.44;4925713;28;104588;-74
2024/03/11 02:05:40;;;;;;;;;20.75;17.75;;;;;-143.90;100.00;74750.50;4922919;28;102207;-73
2024/03/11 02:08:07;;;;;;;;;15.75;15.00;;;;;-143.90;100.00;74756.69;4923511;28;102142;-73
2024/03/11 02:10:34;;;;;;;;;13.00;10.00;;;;;-143.90;100.00;74748.44;4938543;28;103952;-73
2024/03/11 02:13:01;;;;;;;;;20.50;13.75;;;;;-143.90;100.00;74744.28;4938636;28;104144;-73
2024/03/11 02:15:28;;;;;;;;;15.25;13.25;;;;;-143.90;100.00;74736.03;4928962;28;102713;-73
2024/03/11 02:17:56;;;;;;;;;14.00;14.00;;;;;-143.90;100.00;74736.03;4940284;28;102085;-73
2024/03/11 02:20:23;;;;;;;;;15.25;14.25;;;;;-143.90;100.00;74740.16;4942307;28;102670;-73
2024/03/11 02:22:52;;;;;;;;;16.00;15.00;;;;;-143.90;100.00;74731.88;4938828;28;104683;-74
2024/03/11 02:25:26;;;;;;;;;17.25;14.50;;;;;-143.90;100.00;74731.88;4934649;28;102117;-73
2024/03/11 02:27:57;;;;;;;;;16.75;16.00;;;;;-143.90;100.00;74733.97;4936461;28;102701;-74
2024/03/11 02:30:24;;;;;;;;;17.50;13.75;;;;;-143.90;100.00;74740.16;4933418;28;104952;-74
2024/03/11 02:32:51;;;;;;;;;19.00;13.50;;;;;-143.90;100.00;74738.09;4938222;28;104093;-74
2024/03/11 02:35:17;;;;;;;;;15.25;15.00;;;;;-143.90;100.00;74723.63;4937766;28;104352;-74
2024/03/11 02:37:45;;;;;;;;;17.75;14.75;;;;;-143.90;100.00;74717.41;4933041;28;104035;-73
2024/03/11 02:40:17;;;;;;;;;18.50;16.00;;;;;-143.90;100.00;74715.34;4945937;28;102363;-74
2024/03/11 02:42:44;;;;;;;;;15.50;14.25;;;;;-143.90;100.00;74715.34;4932268;28;108741;-74
2024/03/11 02:45:13;;;;;;;;;18.75;15.00;;;;;-143.90;100.00;74723.63;4927906;28;102097;-73
2024/03/11 02:47:41;;;;;;;;;20.25;16.00;;;;;-143.90;100.00;74717.41;4923720;28;104980;-74
2024/03/11 02:50:09;;;;;;;;;14.00;12.25;;;;;-143.90;100.00;74715.34;4935814;28;102130;-74
2024/03/11 02:52:37;;;;;;;;;19.25;15.25;;;;;-143.90;100.00;74721.56;4938553;28;104324;-73
2024/03/11 02:55:05;;;;;;;;;12.75;12.00;;;;;-143.90;100.00;74717.41;4935829;28;101925;-74
2024/03/11 02:57:33;;;;;;;;;18.50;15.75;;;;;-143.90;100.00;74721.56;4926584;28;102527;-73
2024/03/11 03:00:00;;;;;;;;;19.00;14.75;;;;;-143.90;100.00;74721.56;4936573;28;102391;-74
2024/03/11 03:02:27;;;;;;;;;18.25;14.50;;;;;-143.90;100.00;74715.34;4929374;28;103969;-74
2024/03/11 03:04:55;;;;;;;;;15.25;13.75;;;;;-143.90;100.00;74709.16;4936921;28;103880;-74
2024/03/11 03:07:26;;;;;;;;;14.25;12.25;;;;;-143.90;100.00;74723.63;4924244;28;104504;-71
2024/03/11 03:09:52;;;;;;;;;17.00;15.00;;;;;-143.90;100.00;74715.34;4934371;28;102238;-73
2024/03/11 03:12:20;;;;;;;;;18.25;15.75;;;;;-143.90;100.00;74709.16;4929048;28;103755;-73
2024/03/11 03:14:47;;;;;;;;;17.25;15.75;;;;;-143.90;100.00;74713.28;4920039;28;102315;-74
2024/03/11 03:17:14;;;;;;;;;17.00;12.00;;;;;-143.90;100.00;74702.94;4921616;28;102775;-74
2024/03/11 03:19:40;;;;;;;;;20.50;15.00;;;;;-143.90;100.00;74698.81;4910140;28;102724;-74
2024/03/11 03:22:07;;;;;;;;;16.50;15.25;;;;;-143.90;100.00;74705.00;4908653;28;104129;-75
2024/03/11 03:24:34;;;;;;;;;16.25;15.50;;;;;-143.90;100.00;74700.88;4922047;28;105293;-74
2024/03/11 03:27:01;;;;;;;;;15.50;14.75;;;;;-143.90;100.00;74705.00;4921308;28;102422;-74
2024/03/11 03:29:30;;;;;;;;;19.00;14.25;;;;;-143.90;100.00;74713.28;4909764;28;102242;-74
2024/03/11 03:31:57;;;;;;;;;13.50;12.25;;;;;-143.90;100.00;74717.41;4918098;28;103967;-74
2024/03/11 03:34:24;;;;;;;;;14.25;13.00;;;;;-143.90;100.00;74717.41;4921157;28;102095;-74
2024/03/11 03:36:50;;;;;;;;;15.50;14.75;;;;;-143.90;100.00;74709.16;4920757;28;103677;-73
2024/03/11 03:39:17;;;;;;;;;16.75;15.75;;;;;-143.90;100.00;74709.16;4920495;28;102367;-72
2024/03/11 03:41:44;;;;;;;;;14.75;14.75;;;;;-143.90;100.00;74700.88;4907825;28;103482;-73
2024/03/11 03:44:11;;;;;;;;;14.00;13.00;;;;;-143.90;100.00;74705.00;4911919;28;102185;-74
2024/03/11 03:46:38;;;;;;;;;14.00;12.00;;;;;-143.90;100.00;74709.16;4921514;28;104229;-73
2024/03/11 03:49:04;;;;;;;;;21.75;17.75;;;;;-143.90;100.00;74705.00;4922480;28;102035;-73
2024/03/11 03:51:31;;;;;;;;;16.00;14.00;;;;;-143.90;100.00;74705.00;4911752;28;104130;-73
2024/03/11 03:53:58;;;;;;;;;21.00;18.25;;;;;-143.90;100.00;74711.22;4917148;28;102386;-74
2024/03/11 03:56:25;;;;;;;;;20.75;19.25;;;;;-143.90;100.00;74711.22;4918744;28;103907;-74
2024/03/11 03:58:53;;;;;;;;;20.75;18.50;;;;;-143.90;100.00;74709.16;4921497;28;102126;-74
2024/03/11 04:01:22;;;;;;;;;15.50;13.00;;;;;-143.90;100.00;74719.47;4917432;28;104158;-73
2024/03/11 04:03:49;;;;;;;;;17.75;17.00;;;;;-143.90;100.00;74729.81;4908494;28;102819;-72
2024/03/11 04:06:15;;;;;;;;;21.00;19.50;;;;;-143.90;100.00;74725.69;4918638;28;102562;-72
2024/03/11 04:08:42;;;;;;;;;17.75;15.00;;;;;-143.90;100.00;74736.03;4925538;28;102317;-73
2024/03/11 04:11:09;;;;;;;;;21.50;16.00;;;;;-143.90;100.00;74740.16;4924727;28;104877;-73
2024/03/11 04:13:37;;;;;;;;;15.50;15.00;;;;;-143.90;100.00;74736.03;4921802;28;104094;-73
2024/03/11 04:16:07;;;;;;;;;19.25;15.75;;;;;-143.90;100.00;74746.34;4930331;28;102355;-73
2024/03/11 04:18:34;;;;;;;;;18.25;16.50;;;;;-143.90;100.00;74746.34;4927621;28;102202;-73
2024/03/11 04:21:01;;;;;;;;;13.50;11.75;;;;;-143.90;100.00;74748.44;4929335;28;103541;-73
2024/03/11 04:23:28;;;;;;;;;20.75;17.25;;;;;-143.90;100.00;74750.50;4915371;28;102766;-73
2024/03/11 04:25:56;;;;;;;;;14.50;14.50;;;;;-143.90;100.00;74754.63;4927531;28;102862;-74
2024/03/11 04:28:23;;;;;;;;;13.00;11.50;;;;;-143.90;100.00;74760.81;4930551;28;105883;-73
2024/03/11 04:30:50;;;;;;;;;11.75;10.25;;;;;-143.90;100.00;74754.63;4921261;28;104932;-73
2024/03/11 04:33:17;;;;;;;;;7.25;7.00;;;;;-143.90;100.00;74760.81;4915838;28;102280;-73
2024/03/11 04:35:46;;;;;;;;;13.00;11.50;;;;;-143.90;100.00;74762.91;4921107;28;102334;-73
2024/03/11 04:38:13;;;;;;;;;8.00;7.25;;;;;-143.90;100.00;74771.16;4914953;28;102228;-74
2024/03/11 04:40:43;;;;;;;;;8.50;7.00;;;;;-143.90;100.00;74771.16;4927784;28;104288;-75
2024/03/11 04:43:11;;;;;;;;;6.75;5.25;;;;;-143.90;100.00;74779.44;4914805;28;102172;-75
2024/03/11 04:45:37;;;;;;;;;10.75;10.00;;;;;-143.90;100.00;74777.38;4916403;28;102910;-73
2024/03/11 04:48:06;;;;;;;;;20.00;15.00;;;;;-143.90;100.00;74787.69;4926484;28;102372;-73
2024/03/11 04:50:34;;;;;;;;;14.75;13.00;;;;;-143.90;100.00;74791.84;4928140;28;103971;-74
2024/03/11 04:53:07;;;;;;;;;22.00;18.50;;;;;-143.90;100.00;74789.78;4915963;28;103561;-73
2024/03/11 04:55:36;;;;;;;;;15.00;14.00;;;;;-143.90;100.00;74795.97;4911046;28;102729;-73
2024/03/11 04:58:03;;;;;;;;;22.00;16.50;;;;;-143.90;100.00;74812.50;4916320;28;102446;-74
2024/03/11 05:00:30;;;;;;;;;14.75;13.50;;;;;-143.90;100.00;74820.78;4913411;28;105549;-73
2024/03/11 05:02:59;;;;;;;;;13.50;12.00;;;;;-143.90;100.00;74820.78;4921227;28;102426;-73
2024/03/11 05:05:27;;;;;;;;;11.75;11.75;;;;;-143.90;100.00;74818.72;4913518;28;102543;-73
2024/03/11 05:07:54;;;;;;;;;13.25;11.50;;;;;-143.90;100.00;74816.66;4922069;28;102182;-73
2024/03/11 05:10:22;;;;;;;;;14.00;13.00;;;;;-143.90;100.00;74820.78;4924610;28;104062;-73
2024/03/11 05:12:49;;;;;;;;;17.75;13.25;;;;;-143.90;100.00;74822.84;4922477;28;103876;-74
2024/03/11 05:15:17;;;;;;;;;30.25;22.75;;;;;-143.90;100.00;74824.91;4929710;28;102921;-71
2024/03/11 05:17:44;;;;;;;;;28.75;25.50;;;;;-143.90;100.00;74829.03;4932444;28;104259;-73
2024/03/11 05:20:14;;;;;;;;;20.25;19.00;;;;;-143.90;100.00;74833.19;4930246;28;108946;-74
2024/03/11 05:22:42;;;;;;;;;20.00;19.75;;;;;-143.90;100.00;74829.03;4935596;28;102255;-73
2024/03/11 05:25:12;;;;;;;;;24.25;20.00;;;;;-143.90;100.00;74839.38;4937188;28;103009;-74
2024/03/11 05:27:39;;;;;;;;;19.75;17.25;;;;;-143.90;100.00;74835.25;4927843;28;103178;-73
2024/03/11 05:30:07;;;;;;;;;20.50;19.00;;;;;-143.90;100.00;74831.13;4925415;28;104147;-73
2024/03/11 05:32:34;;;;;;;;;19.50;17.75;;;;;-143.90;100.00;74831.13;4936652;28;102355;-76
2024/03/11 05:35:02;;;;;;;;;25.50;20.00;;;;;-143.90;100.00;74826.97;4931869;28;102373;-73
2024/03/11 05:37:28;;;;;;;;;21.50;18.00;;;;;-143.90;100.00;74831.13;4927180;28;103587;-75
2024/03/11 05:39:55;;;;;;;;;20.00;19.00;;;;;-143.90;100.00;74833.19;4935256;28;104020;-71
2024/03/11 05:42:22;;;;;;;;;20.75;15.75;;;;;-143.90;100.00;74829.03;4936038;28;102420;-70
2024/03/11 05:44:49;;;;;;;;;19.25;17.25;;;;;-143.90;100.00;74831.13;4934117;28;102345;-70
2024/03/11 05:47:16;;;;;;;;;23.75;21.50;;;;;-143.90;100.00;74826.97;4941400;28;102267;-71
2024/03/11 05:49:43;;;;;;;;;20.50;18.00;;;;;-143.90;100.00;74835.25;4926561;28;104259;-70
2024/03/11 05:52:10;;;;;;;;;25.00;21.50;;;;;-143.90;100.00;74831.13;4939015;28;102500;-71
2024/03/11 05:54:50;;;;;;;;;23.00;21.00;;;;;-143.90;100.00;74833.19;4938300;28;102554;-71
2024/03/11 05:57:26;;;;;;;;;23.50;22.00;;;;;-143.90;100.00;74833.19;4941505;28;103494;-72
2024/03/11 05:59:53;;;;;;;;;20.50;18.75;;;;;-143.90;100.00;74833.19;4936346;28;108713;-72
2024/03/11 06:02:20;;;;;;;;;25.50;21.00;;;;;-143.90;100.00;74829.03;4944591;28;102275;-71
2024/03/11 06:04:47;;;;;;;;;25.00;23.25;;;;;-143.90;100.00;74835.25;4943896;28;102784;-71
2024/03/11 06:07:20;;;;;;;;;28.75;26.50;;;;;-143.90;100.00;74833.19;4940107;28;102408;-70
2024/03/11 06:09:47;;;;;;;;;25.75;23.75;;;;;-143.90;100.00;74841.44;4936843;28;108931;-70
2024/03/11 06:12:14;;;;;;;;;29.75;28.50;;;;;-143.90;100.00;74837.31;4928163;28;102348;-70
2024/03/11 06:14:40;;;;;;;;;23.75;22.00;;;;;-143.90;100.00;74833.19;4922127;28;101970;-70
2024/03/11 06:17:10;;;;;;;;;30.00;26.00;;;;;-143.90;100.00;74829.03;4922618;28;102503;-71
2024/03/11 06:19:37;;;;;;;;;27.25;25.50;;;;;-143.90;100.00;74829.03;4906725;28;103993;-73
2024/03/11 06:22:05;;;;;;;;;24.00;20.25;;;;;-143.90;100.00;74824.91;4906344;28;102531;-74
2024/03/11 06:24:33;;;;;;;;;23.75;22.25;;;;;-143.90;100.00;74824.91;4909599;28;102030;-72
2024/03/11 06:27:00;;;;;;;;;27.25;23.25;;;;;-143.90;100.00;74833.19;4923461;28;102420;-71
2024/03/11 06:29:27;;;;;;;;;26.00;23.75;;;;;-143.90;100.00;74829.03;4909499;28;104127;-72
2024/03/11 06:31:55;;;;;;;;;21.00;20.25;;;;;-143.90;100.00;74839.38;4910712;28;102200;-71
2024/03/11 06:34:23;;;;;;;;;31.00;28.00;;;;;-143.90;100.00;74831.13;4911145;28;102315;-70
2024/03/11 06:36:50;;;;;;;;;26.25;23.75;;;;;-143.90;100.00;74835.25;4920798;28;102492;-70
2024/03/11 06:39:18;;;;;;;;;30.50;25.75;;;;;-143.90;100.00;74841.44;4924237;28;104063;-70
2024/03/11 06:41:45;;;;;;;;;31.50;26.25;;;;;-143.90;100.00;74841.44;4919141;28;102172;-71
2024/03/11 06:44:12;;;;;;;;;26.50;25.50;;;;;-143.90;100.00;74849.72;4922686;28;102454;-71
2024/03/11 06:46:47;;;;;;;;;31.75;28.25;;;;;-143.90;100.00;74851.78;4922559;28;102263;-71
2024/03/11 06:49:14;;;;;;;;;29.50;25.00;;;;;-143.90;100.00;74864.19;4920166;28;108507;-71
2024/03/11 06:51:41;;;;;;;;;33.50;29.25;;;;;-143.90;100.00;74853.84;4913938;28;102441;-71
2024/03/11 06:54:07;;;;;;;;;28.75;25.00;;;;;-143.90;100.00;74853.84;4921986;28;102703;-72
2024/03/11 06:56:34;;;;;;;;;31.25;26.25;;;;;-143.90;100.00;74853.84;4916254;28;103631;-72
2024/03/11 06:59:01;;;;;;;;;27.75;24.25;;;;;-143.90;100.00;74843.53;4921003;28;105277;-72
2024/03/11 07:01:27;;;;;;;;;29.75;28.00;;;;;-143.90;100.00;74841.44;4909826;28;103083;-70
2024/03/11 07:03:55;;;;;;;;;38.00;31.25;;;;;-143.90;100.00;74837.31;4923166;28;103429;-72
2024/03/11 07:06:23;;;;;;;;;28.25;22.50;;;;;-143.90;100.00;74829.03;4922422;28;102362;-72
2024/03/11 07:08:50;;;;;;;;;31.25;22.75;;;;;-143.90;100.00;74829.03;4922132;28;103815;-69
2024/03/11 07:11:17;;;;;;;;;31.75;28.50;;;;;-143.90;100.00;74833.19;4927015;28;105155;-70
2024/03/11 07:13:43;;;;;;;;;30.25;26.25;;;;;-143.90;100.00;74814.56;4912355;28;102258;-71
2024/03/11 07:16:12;;;;;;;;;24.75;24.00;;;;;-143.90;100.00;74808.38;4917546;28;102410;-71
2024/03/11 07:18:42;;;;;;;;;34.25;29.00;;;;;-143.90;100.00;74812.50;4916699;28;104017;-71
2024/03/11 07:21:09;;;;;;;;;33.00;30.50;;;;;-143.90;100.00;74800.09;4919369;28;102876;-71
2024/03/11 07:23:36;;;;;;;;;34.75;27.00;;;;;-143.90;100.00;74800.09;4912620;28;102454;-70
2024/03/11 07:26:03;;;;;;;;;26.50;23.50;;;;;-143.90;100.00;74785.63;4922783;28;102117;-71
2024/03/11 07:28:32;;;;;;;;;29.25;26.00;;;;;-143.90;100.00;74787.69;4913712;28;105017;-70
2024/03/11 07:30:59;;;;;;;;;31.75;27.75;;;;;-143.90;100.00;74781.50;4915237;28;102422;-71
2024/03/11 07:33:26;;;;;;;;;35.50;30.00;;;;;-143.90;100.00;74787.69;4910191;28;102356;-69
2024/03/11 07:35:54;;;;;;;;;31.00;28.00;;;;;-143.90;100.00;74779.44;4912073;28;102341;-71
2024/03/11 07:38:23;;;;;;;;;19.50;17.25;;;;;-143.90;100.00;74779.44;4917142;28;103976;-70
2024/03/11 07:40:50;;;;;;;;;29.75;28.50;;;;;-143.90;100.00;74783.56;4913205;28;102741;-69
2024/03/11 07:43:17;;;;;;;;;29.25;27.50;;;;;-143.90;100.00;74775.31;4924218;28;102703;-70
2024/03/11 07:45:44;;;;;;;;;28.25;26.25;;;;;-143.90;100.00;74775.31;4911170;28;102683;-70
2024/03/11 07:48:12;;;;;;;;;25.75;22.75;;;;;-143.90;100.00;74771.16;4921736;28;103992;-70
2024/03/11 07:50:40;;;;;;;;;26.25;25.50;;;;;-143.90;100.00;74771.16;4917429;28;104834;-71
2024/03/11 07:53:07;;;;;;;;;26.25;23.25;;;;;-143.90;100.00;74758.75;4917338;28;102434;-71
2024/03/11 07:55:35;;;;;;;;;28.00;23.00;;;;;-143.90;100.00;74760.81;4903052;28;102587;-71
2024/03/11 07:58:02;;;;;;;;;32.75;26.50;;;;;-143.90;100.00;74754.63;4919169;28;104142;-70
2024/03/11 08:00:29;;;;;;;;;33.75;31.25;;;;;-143.90;100.00;74746.34;4919599;28;102763;-71
2024/03/11 08:02:58;;;;;;;;;29.00;28.00;;;;;-143.90;100.00;74731.88;4919749;28;102798;-70
2024/03/11 08:05:27;;;;;;;;;26.00;24.25;;;;;-143.90;100.00;74721.56;4912178;28;103480;-71
2024/03/11 08:07:54;;;;;;;;;32.25;28.75;;;;;-143.90;100.00;74713.28;4913060;28;104333;-70
2024/03/11 08:10:21;;;;;;;;;25.75;24.50;;;;;-143.90;100.00;74700.88;4917110;28;102097;-70
2024/03/11 08:12:48;;;;;;;;;35.50;28.50;;;;;-143.90;100.00;74705.00;4931323;28;102147;-71
2024/03/11 08:15:17;;;;;;;;;22.50;20.50;;;;;-143.90;100.00;74696.75;4917913;28;102483;-72
2024/03/11 08:17:46;;;;;;;;;28.00;23.25;;;;;-143.90;100.00;74684.34;4918373;28;108743;-72
2024/03/11 08:20:17;;;;;;;;;26.75;26.50;;;;;-143.90;100.00;74680.22;4940501;28;102383;-70
2024/03/11 08:22:47;;;;;;;;;32.00;28.50;;;;;-143.90;100.00;74667.81;4939740;28;104400;-71
2024/03/11 08:25:15;;;;;;;;;25.50;22.25;;;;;-143.90;100.00;74667.81;4942669;28;102002;-71
2024/03/11 08:27:42;;;;;;;;;26.25;21.75;;;;;-143.90;100.00;74653.34;4932967;28;103881;-71
2024/03/11 08:30:09;;;;;;;;;34.25;28.25;;;;;-143.90;100.00;74638.88;4938691;28;102495;-71
2024/03/11 08:32:36;;;;;;;;;32.50;24.25;;;;;-143.90;100.00;74630.59;4938877;28;102570;-71
2024/03/11 08:35:04;;;;;;;;;31.25;29.50;;;;;-143.90;100.00;74626.47;4932916;28;102688;-72
2024/03/11 08:37:31;;;;;;;;;38.75;31.50;;;;;-143.90;100.00;74620.25;4918050;28;105006;-71
2024/03/11 08:39:58;;;;;;;;;27.50;25.00;;;;;-143.90;100.00;74620.25;4939619;28;102653;-70
2024/03/11 08:42:26;;;;;;;;;32.00;28.00;;;;;-143.90;100.00;74618.19;4926760;28;102052;-70
2024/03/11 08:44:53;;;;;;;;;31.00;27.25;;;;;-143.90;100.00;74618.19;4941386;28;102036;-70
2024/03/11 08:47:20;;;;;;;;;34.50;30.25;;;;;-143.90;100.00;74607.84;4937111;28;103946;-71
2024/03/11 08:49:47;;;;;;;;;33.75;29.25;;;;;-143.90;100.00;74614.06;4929016;28;101991;-70
2024/03/11 08:52:14;;;;;;;;;31.75;24.50;;;;;-143.90;100.00;74605.78;4938954;28;104476;-70
2024/03/11 08:54:42;;;;;;;;;35.50;29.75;;;;;-143.90;100.00;74589.25;4939991;28;103449;-71
2024/03/11 08:57:09;;;;;;;;;29.00;25.25;;;;;-143.90;100.00;74593.38;4936018;28;104106;-70
2024/03/11 08:59:37;;;;;;;;;28.75;25.25;;;;;-143.90;100.00;74593.38;4930973;28;105344;-71
2024/03/11 09:02:04;;;;;;;;;30.00;27.00;;;;;-143.90;100.00;74572.72;4936044;28;102345;-72
2024/03/11 09:04:32;;;;;;;;;34.75;30.50;;;;;-143.90;100.00;74578.91;4934997;28;102327;-71
2024/03/11 09:06:59;;;;;;;;;35.00;31.00;;;;;-143.90;100.00;74581.00;4937059;28;104149;-71
2024/03/11 09:09:26;;;;;;;;;29.75;27.75;;;;;-143.90;100.00;74589.25;4924585;28;102794;-70
2024/03/11 09:11:57;;;;;;;;;34.50;31.50;;;;;-143.90;100.00;74597.53;4940625;28;101982;-70
2024/03/11 09:14:28;;;;;;;;;29.00;27.25;;;;;-143.90;100.00;74589.25;4943488;28;104872;-70
2024/03/11 09:16:55;;;;;;;;;32.25;28.50;;;;;-143.90;100.00;74585.13;4939707;28;104157;-70
2024/03/11 09:19:23;;;;;;;;;32.50;27.00;;;;;-143.90;100.00;74581.00;4929917;28;102362;-71
2024/03/11 09:21:51;;;;;;;;;30.00;28.50;;;;;-143.90;100.00;74564.44;4934620;28;102572;-71
2024/03/11 09:24:19;;;;;;;;;33.25;29.50;;;;;-143.90;100.00;74547.91;4934880;28;102461;-72
2024/03/11 09:26:51;;;;;;;;;25.75;25.75;;;;;-143.90;100.00;74537.56;4934987;28;109957;-72
2024/03/11 09:29:20;;;;;;;;;32.00;28.75;;;;;-143.90;100.00;74523.09;4933136;28;102360;-72
2024/03/11 09:31:47;;;;;;;;;30.50;25.50;;;;;-143.90;100.00;74531.38;4923034;28;102429;-72
2024/03/11 09:34:15;;;;;;;;;29.00;24.00;;;;;-143.90;100.00;74529.31;4933757;28;102093;-72
2024/03/11 09:36:41;;;;;;;;;30.50;26.00;;;;;-143.90;100.00;74514.84;4942877;28;104065;-72
2024/03/11 09:39:11;;;;;;;;;28.75;24.75;;;;;-143.90;100.00;74498.31;4940418;28;102301;-72
2024/03/11 09:41:44;;;;;;;;;27.25;25.00;;;;;-143.90;100.00;74477.63;4927099;28;102443;-72
2024/03/11 09:44:16;;;;;;;;;26.25;25.50;;;;;-143.90;100.00;74459.03;4941304;28;103017;-72
2024/03/11 09:46:51;;;;;;;;;27.75;22.00;;;;;-143.90;100.00;74444.56;4944490;28;108098;-72
2024/03/11 09:49:19;;;;;;;;;29.25;24.25;;;;;-143.90;100.00;74434.22;4940389;28;102429;-70
2024/03/11 09:51:47;;;;;;;;;25.00;23.50;;;;;-143.90;100.00;74432.16;4930689;28;102575;-71
2024/03/11 09:54:19;;;;;;;;;25.00;22.25;;;;;-143.90;100.00;74417.69;4940960;28;102944;-71
2024/03/11 09:56:47;;;;;;;;;27.75;26.25;;;;;-143.90;100.00;74405.28;4938384;28;104055;-71
2024/03/11 09:59:19;;;;;;;;;22.75;19.00;;;;;-143.90;100.00;74376.34;4940577;28;103150;-72
2024/03/11 10:01:54;;;;;;;;;28.00;24.25;;;;;-143.90;100.00;74361.88;4936722;28;102085;-71
2024/03/11 10:04:22;;;;;;;;;21.50;19.25;;;;;-143.90;100.00;74349.47;4939974;28;106081;-72
2024/03/11 10:07:01;;;;;;;;;25.00;23.50;;;;;-143.90;100.00;74351.53;4932196;28;109840;-71
2024/03/11 10:09:28;;;;;;;;;19.25;17.25;;;;;-143.90;100.00;74341.22;4923241;28;101861;-71
2024/03/11 10:12:08;;;;;;;;;21.00;17.50;;;;;-143.90;100.00;74291.59;4929896;28;102623;-71
2024/03/11 10:14:38;;;;;;;;;17.25;16.00;;;;;-143.90;100.00;74275.06;4921952;28;102273;-72
2024/03/11 10:17:34;;;;;;;;;20.75;19.00;;;;;-143.90;100.00;74258.53;4918628;28;104082;-72
2024/03/11 10:20:03;;;;;;;;;25.50;21.00;;;;;-143.90;100.00;74264.72;4921073;28;103108;-72
2024/03/11 10:22:33;;;;;;;;;14.25;13.50;;;;;-143.90;100.00;74211.00;4924175;28;101988;-72
2024/03/11 10:25:02;;;;;;;;;19.25;18.75;;;;;-143.90;100.00;74194.47;4920958;28;102180;-72
2024/03/11 10:27:39;;;;;;;;;19.50;17.50;;;;;-143.90;100.00;74151.06;4898017;28;104113;-71
2024/03/11 10:30:21;;;;;;;;;18.75;18.50;;;;;-143.90;100.00;74138.66;4920758;28;102572;-71
2024/03/11 10:32:56;;;;;;;;;17.25;17.00;;;;;-143.90;100.00;74122.13;4920149;28;102158;-71
2024/03/11 10:35:27;;;;;;;;;16.25;15.00;;;;;-143.90;100.00;74122.13;4912662;28;102739;-71
2024/03/11 10:38:10;;;;;;;;;19.75;17.25;;;;;-143.90;100.00;74138.66;4924935;28;104469;-70
2024/03/11 10:40:38;;;;;;;;;21.25;19.75;;;;;-143.90;100.00;74146.91;4921842;28;101963;-71
2024/03/11 10:43:25;;;;;;;;;21.50;20.75;;;;;-143.90;100.00;74192.41;4921960;28;101994;-71
2024/03/11 10:45:53;;;;;;;;;20.75;18.50;;;;;-143.90;100.00;74180.00;4918778;28;102161;-70
2024/03/11 10:48:25;;;;;;;;;20.25;18.25;;;;;-143.90;100.00;74169.66;4924700;28;104021;-71
2024/03/11 10:50:56;;;;;;;;;11.00;9.00;;;;;-143.90;100.00;74128.31;4910594;28;103313;-71